createdAt,value
2019-04-06T00:04:07.562Z,9.00
2019-04-06T00:09:14.166Z,8.90
2019-04-06T00:14:20.661Z,9.00
2019-04-06T00:19:28.914Z,9.10
2019-04-06T00:24:35.534Z,9.10
2019-04-06T00:29:42.114Z,8.80
2019-04-06T00:34:48.606Z,9.00
2019-04-06T00:39:55.241Z,9.00
2019-04-06T00:45:02.768Z,9.00
2019-04-06T00:50:10.930Z,8.90
2019-04-06T00:55:17.315Z,9.00
2019-04-06T01:00:23.700Z,9.10
2019-04-06T01:05:30.599Z,9.10
2019-04-06T01:10:37.054Z,9.00
2019-04-06T01:15:43.375Z,9.00
2019-04-06T01:20:49.724Z,8.90
2019-04-06T01:26:06.699Z,9.00
2019-04-06T01:31:07.075Z,8.90
2019-04-06T01:36:13.799Z,8.90
2019-04-06T01:41:20.139Z,8.90
2019-04-06T01:46:28.470Z,9.00
2019-04-06T01:51:35.237Z,9.00
2019-04-06T01:56:43.552Z,8.90
2019-04-06T02:01:57.151Z,8.90
2019-04-06T02:07:03.680Z,8.90
2019-04-06T02:12:10.190Z,8.90
2019-04-06T02:17:16.616Z,8.90
2019-04-06T02:22:22.932Z,8.80
2019-04-06T02:27:29.568Z,8.80
2019-04-06T02:32:43.632Z,8.90
2019-04-06T02:37:55.609Z,8.90
2019-04-06T02:43:09.950Z,8.90
2019-04-06T02:48:16.345Z,8.80
2019-04-06T02:53:22.812Z,8.90
2019-04-06T02:58:29.187Z,8.90
2019-04-06T03:03:36.155Z,8.70
2019-04-06T03:08:44.286Z,8.80
2019-04-06T03:13:51.745Z,8.80
2019-04-06T03:18:58.049Z,8.70
2019-04-06T03:24:05.330Z,8.90
2019-04-06T03:29:12.332Z,8.80
2019-04-06T03:34:21.570Z,8.60
2019-04-06T03:39:26.829Z,8.80
2019-04-06T03:44:33.700Z,8.80
2019-04-06T03:49:40.120Z,8.80
2019-04-06T03:54:47.663Z,8.80
2019-04-06T03:59:54.043Z,8.80
2019-04-06T04:05:00.436Z,8.80
2019-04-06T04:10:08.367Z,8.90
2019-04-06T04:15:14.971Z,8.80
2019-04-06T04:20:21.316Z,8.70
2019-04-06T04:25:27.817Z,8.70
2019-04-06T04:30:34.968Z,8.80
2019-04-06T04:35:41.603Z,8.80
2019-04-06T04:40:47.974Z,8.70
2019-04-06T04:45:54.643Z,8.80
2019-04-06T04:51:02.811Z,8.80
2019-04-06T04:56:09.303Z,8.70
2019-04-06T05:01:15.573Z,8.90
2019-04-06T05:06:22.045Z,8.90
2019-04-06T05:11:28.704Z,8.90
2019-04-06T05:16:35.007Z,8.90
2019-04-06T05:21:41.237Z,8.80
2019-04-06T05:26:47.469Z,8.90
2019-04-06T05:31:53.876Z,8.90
2019-04-06T05:37:00.258Z,8.80
2019-04-06T05:42:07.009Z,8.80
2019-04-06T05:47:13.483Z,8.90
2019-04-06T05:52:20.852Z,8.90
2019-04-06T05:57:27.384Z,8.90
2019-04-06T06:02:33.715Z,8.90
2019-04-06T06:07:40.038Z,8.90
2019-04-06T06:12:46.628Z,8.90
2019-04-06T06:17:56.809Z,8.90
2019-04-06T06:23:03.164Z,8.90
2019-04-06T06:28:15.249Z,9.00
2019-04-06T06:33:18.013Z,9.00
2019-04-06T06:38:24.772Z,9.00
2019-04-06T06:43:32.120Z,9.20
2019-04-06T06:48:38.719Z,9.30
2019-04-06T06:53:45.886Z,9.40
2019-04-06T06:58:52.214Z,9.40
2019-04-06T07:03:58.977Z,9.70
2019-04-06T07:09:07.219Z,9.90
2019-04-06T07:14:15.178Z,9.90
2019-04-06T07:19:21.883Z,10.00
2019-04-06T07:24:28.194Z,10.10
2019-04-06T07:29:34.584Z,10.40
2019-04-06T07:34:41.123Z,10.60
2019-04-06T07:39:47.520Z,10.70
2019-04-06T07:44:55.078Z,10.70
2019-04-06T07:50:01.539Z,10.90
2019-04-06T07:55:08.531Z,10.90
2019-04-06T08:00:15.122Z,11.20
2019-04-06T08:05:21.638Z,11.40
2019-04-06T08:10:28.211Z,11.60
2019-04-06T08:15:35.253Z,12.00
2019-04-06T08:20:42.827Z,12.20
2019-04-06T08:25:49.335Z,12.90
2019-04-06T08:38:48.024Z,12.60
2019-04-06T08:43:54.259Z,13.20
2019-04-06T08:49:00.543Z,12.70
2019-04-06T08:54:07.491Z,12.80
2019-04-06T08:59:15.127Z,13.40
2019-04-06T09:04:22.307Z,13.50
2019-04-06T09:09:31.221Z,14.00
2019-04-06T09:14:38.477Z,13.90
2019-04-06T09:19:46.663Z,14.30
2019-04-06T09:24:53.123Z,14.30
2019-04-06T09:29:59.456Z,14.90
2019-04-06T09:35:07.078Z,14.90
2019-04-06T09:40:15.724Z,15.10
2019-04-06T09:45:56.283Z,15.00
2019-04-06T09:51:22.229Z,14.50
2019-04-06T09:56:40.148Z,16.00
2019-04-06T10:02:05.538Z,16.20
2019-04-06T10:07:37.204Z,16.40
2019-04-06T10:13:09.947Z,15.20
2019-04-06T10:18:26.255Z,15.70
2019-04-06T10:23:54.974Z,16.40
2019-04-06T10:29:47.980Z,16.80
2019-04-06T10:35:24.904Z,16.40
2019-04-06T10:40:46.379Z,16.60
2019-04-06T10:46:14.259Z,15.90
2019-04-06T10:51:58.072Z,15.50
2019-04-06T10:57:26.520Z,16.60
2019-04-06T11:02:56.195Z,15.80
2019-04-06T11:08:30.467Z,16.10
2019-04-06T11:13:54.955Z,16.60
2019-04-06T11:19:26.757Z,17.00
2019-04-06T11:24:58.618Z,16.30
2019-04-06T11:30:38.766Z,16.00
2019-04-06T11:36:17.601Z,15.70
2019-04-06T11:41:55.472Z,16.90
2019-04-06T11:47:19.629Z,16.50
2019-04-06T11:52:49.753Z,16.60
2019-04-06T11:58:18.203Z,15.70
2019-04-06T12:03:30.716Z,16.50
2019-04-06T12:08:58.990Z,16.20
2019-04-06T12:14:17.047Z,16.50
2019-04-06T12:19:45.575Z,17.30
2019-04-06T12:25:15.129Z,17.10
2019-04-06T12:30:43.679Z,17.10
2019-04-06T12:36:09.296Z,17.20
2019-04-06T12:41:29.189Z,16.90
2019-04-06T12:46:47.449Z,17.00
2019-04-06T12:52:26.028Z,16.80
2019-04-06T12:58:00.871Z,16.80
2019-04-06T13:03:25.166Z,17.10
2019-04-06T13:08:39.521Z,17.50
2019-04-06T13:14:15.095Z,17.50
2019-04-06T13:19:52.139Z,17.40
2019-04-06T13:25:26.361Z,17.10
2019-04-06T13:30:46.412Z,17.00
2019-04-06T13:36:14.796Z,17.20
2019-04-06T13:41:42.746Z,17.10
2019-04-06T13:47:11.190Z,17.50
2019-04-06T13:52:28.859Z,17.50
2019-04-06T13:57:52.846Z,17.60
2019-04-06T14:03:27.290Z,17.60
2019-04-06T14:09:01.989Z,18.10
2019-04-06T14:14:29.559Z,18.20
2019-04-06T14:19:48.663Z,18.30
2019-04-06T14:25:10.738Z,17.80
2019-04-06T14:30:39.068Z,18.00
2019-04-06T14:36:03.159Z,18.30
2019-04-06T14:41:28.684Z,18.80
2019-04-06T14:46:54.368Z,18.20
2019-04-06T14:52:16.568Z,17.70
2019-04-06T14:57:41.961Z,17.60
2019-04-06T15:02:59.192Z,18.10
2019-04-06T15:08:23.356Z,17.90
2019-04-06T15:13:55.882Z,18.20
2019-04-06T15:19:27.000Z,17.90
2019-04-06T15:24:42.922Z,17.90
2019-04-06T15:30:07.480Z,17.70
2019-04-06T15:35:34.407Z,17.30
2019-04-06T15:40:59.005Z,17.30
2019-04-06T15:46:31.028Z,17.50
2019-04-06T15:51:54.606Z,17.30
2019-04-06T15:57:22.412Z,17.30
2019-04-06T16:02:46.665Z,17.20
2019-04-06T16:08:15.306Z,17.40
2019-04-06T16:13:33.532Z,17.70
2019-04-06T16:19:05.229Z,17.80
2019-04-06T16:24:48.912Z,17.60
2019-04-06T16:30:06.176Z,17.40
2019-04-06T16:35:25.747Z,17.00
2019-04-06T16:40:57.036Z,17.10
2019-04-06T16:46:20.322Z,17.00
2019-04-06T16:51:44.233Z,17.00
2019-04-06T16:57:16.048Z,17.00
2019-04-06T17:02:44.370Z,16.80
2019-04-06T17:08:10.209Z,16.90
2019-04-06T17:13:27.281Z,16.60
2019-04-06T17:18:52.506Z,16.60
2019-04-06T17:24:16.752Z,16.50
2019-04-06T17:29:30.128Z,16.10
2019-04-06T17:34:56.686Z,16.20
2019-04-06T17:40:17.851Z,16.20
2019-04-06T17:45:41.405Z,16.20
2019-04-06T17:51:16.601Z,16.20
2019-04-06T17:56:54.711Z,16.10
2019-04-06T18:02:11.645Z,15.90
2019-04-06T18:07:35.875Z,15.80
2019-04-06T18:12:48.581Z,15.70
2019-04-06T18:17:55.240Z,15.60
2019-04-06T18:23:01.693Z,15.60
2019-04-06T18:28:09.657Z,15.60
2019-04-06T18:33:19.975Z,15.50
2019-04-06T18:38:38.668Z,15.30
2019-04-06T18:43:45.465Z,15.20
2019-04-06T18:48:52.004Z,15.20
2019-04-06T18:53:58.637Z,15.10
2019-04-06T18:59:06.603Z,14.90
2019-04-06T19:04:14.158Z,14.90
2019-04-06T19:09:24.076Z,14.90
2019-04-06T19:14:29.629Z,14.70
2019-04-06T19:19:36.375Z,14.70
2019-04-06T19:24:43.182Z,14.60
2019-04-06T19:29:49.564Z,14.60
2019-04-06T19:34:56.194Z,14.60
2019-04-06T19:40:02.506Z,14.60
2019-04-06T19:45:09.340Z,14.70
2019-04-06T19:50:16.397Z,14.70
2019-04-06T19:55:22.995Z,14.70
2019-04-06T20:00:30.963Z,14.70
2019-04-06T20:05:37.287Z,14.70
2019-04-06T20:10:44.139Z,14.70
2019-04-06T20:15:50.875Z,14.70
2019-04-06T20:20:57.237Z,14.70
2019-04-06T20:26:04.695Z,14.70
2019-04-06T20:31:11.557Z,14.70
2019-04-06T20:36:18.247Z,14.60
2019-04-06T20:41:24.884Z,14.60
2019-04-06T20:46:31.251Z,14.60
2019-04-06T20:51:37.971Z,14.50
2019-04-06T20:56:53.837Z,14.40
2019-04-06T21:01:53.171Z,14.40
2019-04-06T21:06:59.944Z,14.30
2019-04-06T21:12:06.821Z,14.30
2019-04-06T21:17:13.252Z,14.30
2019-04-06T21:22:20.185Z,14.20
2019-04-06T21:27:27.106Z,14.10
2019-04-06T21:32:33.629Z,14.20
2019-04-06T21:37:40.027Z,14.10
2019-04-06T21:42:46.535Z,14.00
2019-04-06T21:47:53.067Z,13.80
2019-04-06T21:52:59.463Z,13.70
2019-04-06T21:58:05.805Z,13.60
2019-04-06T22:03:12.211Z,13.50
2019-04-06T22:08:18.807Z,13.50
2019-04-06T22:13:26.243Z,13.40
2019-04-06T22:18:34.391Z,13.30
2019-04-06T22:23:44.956Z,13.30
2019-04-06T22:28:50.840Z,13.20
2019-04-06T22:33:57.212Z,13.10
2019-04-06T22:39:06.173Z,13.00
2019-04-06T22:44:13.127Z,13.00
2019-04-06T22:49:22.757Z,12.90
2019-04-06T22:54:29.122Z,12.90
2019-04-06T22:59:35.658Z,12.90
2019-04-06T23:04:51.257Z,12.80
2019-04-06T23:09:57.694Z,12.70
2019-04-06T23:15:06.056Z,12.70
2019-04-06T23:20:12.960Z,12.60
2019-04-06T23:25:19.821Z,12.60
2019-04-06T23:30:26.528Z,12.60
2019-04-06T23:35:33.016Z,12.50
2019-04-06T23:40:39.525Z,12.50
2019-04-06T23:45:46.049Z,12.40
2019-04-06T23:50:52.408Z,12.40
2019-04-06T23:56:00.910Z,12.30
